Time;durP1;ratioP1;P1;durP2;ratioP2;P2;SDS_P1;SDS_P2;PMS_P1;PMS_P2;Temp;Humidity;BMP_temperature;BMP_pressure;BME280_temperature;BME280_humidity;BME280_pressure;Samples;Min_cycle;Max_cycle;Signal;HPM_P1;HPM_P2
2024/04/15 00:01:08;;;;;;;0.10;0.10;;;21.70;81.20;;;22.14;62.06;99864.94;6625120;21;20269;-25
2024/04/15 00:03:34;;;;;;;0.10;0.10;;;21.60;81.40;;;22.14;61.99;99861.47;6563363;21;20266;-26
2024/04/15 00:06:00;;;;;;;0.00;0.00;;;21.60;81.60;;;22.11;61.66;99860.09;6594609;21;20295;-25
2024/04/15 00:08:26;;;;;;;0.00;0.00;;;21.60;81.80;;;22.09;61.57;99848.91;6624177;21;20232;-25
2024/04/15 00:10:51;;;;;;;0.10;0.10;;;21.50;81.60;;;;;;6593050;21;20656;-24
2024/04/15 00:13:17;;;;;;;0.00;0.00;;;21.50;81.70;;;22.03;61.94;99858.63;6610438;21;20229;-28
2024/04/15 00:15:57;;;;;;;0.00;0.00;;;21.50;81.70;;;22.02;61.78;99861.53;6607605;21;20293;-25
2024/04/15 00:18:25;;;;;;;0.00;0.00;;;21.50;81.80;;;22.00;61.56;99856.41;6594692;21;20268;-28
2024/04/15 00:20:59;;;;;;;0.10;0.10;;;21.40;81.80;;;21.98;62.27;99836.41;6624336;21;20593;-24
2024/04/15 00:23:27;;;;;;;0.10;0.10;;;21.40;82.10;;;21.96;61.66;99847.31;6593878;21;20263;-30
2024/04/15 00:25:56;;;;;;;0.00;0.00;;;21.40;82.10;;;21.94;61.73;99849.38;6593997;21;20256;-25
2024/04/15 00:28:22;;;;;;;0.00;0.00;;;21.40;82.10;;;21.93;61.52;99849.63;6624686;21;20547;-29
2024/04/15 00:30:48;;;;;;;0.10;0.10;;;21.30;82.10;;;21.92;61.53;99851.50;6592969;21;20390;-25
2024/04/15 00:33:14;;;;;;;0.10;0.10;;;21.30;82.10;;;21.90;61.95;99834.97;6608937;21;20224;-24
2024/04/15 00:35:47;;;;;;;0.10;0.10;;;21.30;82.30;;;21.89;61.57;99827.22;6607056;21;20336;-26
2024/04/15 00:38:14;;;;;;;0.00;0.00;;;21.30;82.40;;;21.89;61.93;99832.53;6595047;21;20377;-23
2024/04/15 00:40:40;;;;;;;0.00;0.00;;;21.30;82.50;;;21.86;62.01;99838.31;6623454;21;20264;-26
2024/04/15 00:43:09;;;;;;;0.00;0.00;;;21.20;82.40;;;21.84;61.80;99827.13;6550276;21;20336;-27
2024/04/15 00:45:35;;;;;;;0.10;0.10;;;21.20;82.40;;;21.83;62.36;99817.53;6609216;21;20297;-24
2024/04/15 00:48:04;;;;;;;0.10;0.10;;;21.20;82.40;;;21.80;62.17;99819.59;6607326;21;20302;-26
2024/04/15 00:50:34;;;;;;;0.03;0.03;;;21.20;82.40;;;21.80;61.83;99816.13;6593183;21;20840;-24
2024/04/15 00:53:02;;;;;;;0.10;0.10;;;21.20;82.80;;;21.78;61.78;99811.03;6595566;21;20336;-26
2024/04/15 00:55:32;;;;;;;0.00;0.00;;;21.10;82.50;;;21.76;61.62;99807.81;6548545;21;20276;-28
2024/04/15 00:57:59;;;;;;;0.10;0.10;;;21.10;82.50;;;21.75;61.33;99808.88;6583673;21;20260;-25
2024/04/15 01:00:25;;;;;;;0.00;0.00;;;21.10;82.40;;;21.71;61.63;99794.41;6598393;21;20341;-28
2024/04/15 01:02:51;;;;;;;0.00;0.00;;;21.10;82.50;;;21.71;61.96;99790.97;6591662;21;20268;-23
2024/04/15 01:05:17;;;;;;;0.10;0.10;;;21.10;82.40;;;21.69;62.07;99796.53;6623985;21;20309;-27
2024/04/15 01:07:44;;;;;;;0.00;0.00;;;21.00;82.40;;;21.68;62.15;99786.13;6591018;21;20279;-27
2024/04/15 01:10:10;;;;;;;0.00;0.00;;;21.00;82.50;;;21.68;61.78;99786.13;6594943;21;20335;-24
2024/04/15 01:12:37;;;;;;;0.00;0.00;;;21.00;82.50;;;21.65;61.86;99787.41;6587826;21;20762;-33
2024/04/15 01:15:03;;;;;;;0.10;0.10;;;21.00;82.50;;;21.65;61.11;99792.72;6594049;21;20268;-28
2024/04/15 01:17:29;;;;;;;0.00;0.00;;;21.00;82.50;;;21.62;61.39;99793.22;6609962;21;20248;-25
2024/04/15 01:20:00;;;;;;;0.03;0.03;;;21.00;82.40;;;21.62;61.10;99787.88;6609757;21;20333;-27
2024/04/15 01:22:33;;;;;;;0.10;0.10;;;21.00;82.60;;;21.60;62.00;99789.97;6595367;21;20275;-26
2024/04/15 01:25:01;;;;;;;0.10;0.10;;;21.00;82.60;;;21.60;61.28;99781.97;6625822;21;20558;-23
2024/04/15 01:27:27;;;;;;;0.10;0.10;;;20.90;82.60;;;21.59;61.34;99787.53;6550691;21;20265;-27
2024/04/15 01:29:56;;;;;;;0.10;0.10;;;20.90;83.50;;;21.59;61.59;99804.31;6584546;21;20302;-23
2024/04/15 01:32:22;;;;;;;0.10;0.10;;;20.90;83.00;;;21.58;61.49;99804.56;6599419;21;20561;-27
2024/04/15 01:34:49;;;;;;;0.10;0.10;;;20.90;82.80;;;21.56;61.32;99793.34;6594894;21;20297;-25
2024/04/15 01:37:15;;;;;;;0.00;0.00;;;20.90;82.70;;;21.54;62.00;99796.25;6627389;21;20224;-26
2024/04/15 01:39:41;;;;;;;0.10;0.10;;;20.90;82.70;;;21.53;61.27;99805.25;6593803;21;20719;-26
2024/04/15 01:42:06;;;;;;;0.10;0.10;;;20.90;82.60;;;21.51;61.32;99794.88;6596438;21;20290;-25
2024/04/15 01:44:32;;;;;;;0.10;0.10;;;20.90;82.60;;;21.49;61.42;99796.97;6625243;21;20893;-26
2024/04/15 01:46:58;;;;;;;0.10;0.10;;;20.80;82.60;;;21.48;61.15;99799.88;6594991;21;20318;-26
2024/04/15 01:49:24;;;;;;;0.10;0.10;;;20.80;82.50;;;21.47;61.46;99793.75;6611172;21;20236;-24
2024/04/15 01:51:50;;;;;;;0.00;0.00;;;20.80;83.00;;;21.47;61.26;99792.91;6609488;21;20255;-24
2024/04/15 01:54:15;;;;;;;0.10;0.10;;;20.80;83.40;;;21.45;61.24;99793.16;6596356;21;20271;-25
2024/04/15 01:56:41;;;;;;;0.10;0.10;;;20.80;82.60;;;21.43;61.17;99792.59;6626705;21;20293;-28
2024/04/15 01:59:07;;;;;;;0.10;0.10;;;20.80;82.70;;;21.42;61.50;99796.31;6594481;21;20263;-26
2024/04/15 02:01:35;;;;;;;0.10;0.10;;;20.80;82.60;;;21.41;61.32;99789.38;6611225;21;20262;-25
2024/04/15 02:04:01;;;;;;;0.10;0.10;;;20.70;82.70;;;21.40;61.92;99776.28;6608408;21;20368;-24
2024/04/15 02:06:27;;;;;;;0.00;0.00;;;20.70;82.80;;;21.38;61.29;99773.88;6595445;21;20718;-24
2024/04/15 02:08:52;;;;;;;0.00;0.00;;;20.70;82.70;;;21.38;61.55;99773.88;6595360;21;20239;-25
2024/04/15 02:11:18;;;;;;;0.00;0.00;;;20.70;82.80;;;21.36;61.34;99764.53;6556622;21;20279;-23
2024/04/15 02:13:44;;;;;;;0.10;0.10;;;20.70;82.80;;;21.34;61.20;99754.13;6609706;21;20736;-28
2024/04/15 02:16:10;;;;;;;0.10;0.10;;;20.70;83.00;;;21.33;61.64;99747.16;6565753;21;20289;-27
2024/04/15 02:18:35;;;;;;;0.10;0.10;;;20.70;82.90;;;21.32;61.19;99750.06;6595858;21;20297;-24
2024/04/15 02:21:02;;;;;;;0.03;0.03;;;20.60;82.90;;;21.30;61.17;99746.84;6626181;21;20305;-25
2024/04/15 02:23:28;;;;;;;0.10;0.10;;;20.60;82.90;;;21.29;61.89;99751.38;6594557;21;20371;-24
2024/04/15 02:25:53;;;;;;;0.10;0.10;;;20.60;83.00;;;21.27;61.24;99738.28;6594131;21;20890;-25
2024/04/15 02:28:19;;;;;;;0.10;0.10;;;20.60;83.00;;;21.26;61.84;99736.63;6624562;21;20222;-23
2024/04/15 02:30:50;;;;;;;0.10;0.10;;;20.60;83.20;;;21.24;61.72;99744.06;6594106;21;20301;-27
2024/04/15 02:33:16;;;;;;;0.10;0.10;;;20.60;83.10;;;21.25;61.09;99747.53;6626945;21;20222;-26
2024/04/15 02:35:42;;;;;;;0.00;0.00;;;20.60;83.20;;;21.22;61.71;99740.84;6561720;21;20263;-29
2024/04/15 02:38:08;;;;;;;0.07;0.07;;;20.50;83.10;;;21.22;61.02;99763.97;6595349;21;20259;-27
2024/04/15 02:40:34;;;;;;;0.10;0.10;;;20.50;83.10;;;21.19;61.38;99749.28;6625086;21;20219;-25
2024/04/15 02:43:00;;;;;;;0.00;0.00;;;20.50;83.10;;;21.19;61.60;99709.38;6593711;21;20296;-22
2024/04/15 02:45:26;;;;;;;0.10;0.10;;;20.50;83.30;;;21.19;62.02;99701.41;6610332;21;20314;-22
2024/04/15 02:47:52;;;;;;;0.00;0.00;;;20.50;83.90;;;21.18;62.09;99715.75;6608380;21;20652;-24
2024/04/15 02:50:17;;;;;;;0.00;0.00;;;20.50;83.80;;;21.16;62.29;99749.78;6594598;21;20305;-22
2024/04/15 02:52:43;;;;;;;0.00;0.00;;;20.50;83.60;;;21.15;61.49;99736.72;6624600;21;20529;-23
2024/04/15 02:55:09;;;;;;;0.10;0.10;;;20.50;83.50;;;21.13;61.46;99710.34;6593319;21;20357;-24
2024/04/15 02:57:35;;;;;;;0.00;0.00;;;20.50;83.70;;;21.13;62.06;99704.22;6610914;21;20325;-25
2024/04/15 03:00:00;;;;;;;0.03;0.03;;;20.40;83.80;;;21.11;62.04;99696.47;6608302;21;20754;-27
2024/04/15 03:02:26;;;;;;;0.00;0.00;;;20.40;83.90;;;21.08;61.95;99696.97;6595532;21;20343;-24
2024/04/15 03:04:53;;;;;;;0.00;0.00;;;20.40;84.10;;;21.08;62.19;99696.16;6625543;21;20277;-22
2024/04/15 03:07:18;;;;;;;0.10;0.10;;;20.40;84.30;;;21.06;62.74;99693.72;6594783;21;20271;-23
2024/04/15 03:09:44;;;;;;;0.00;0.00;;;20.40;84.50;;;21.06;62.62;99693.72;6592196;21;20360;-26
2024/04/15 03:12:12;;;;;;;0.10;0.10;;;20.40;84.60;;;21.04;62.90;99687.84;6579767;21;20299;-25
2024/04/15 03:14:38;;;;;;;0.00;0.00;;;20.40;84.50;;;21.02;62.48;99676.66;6561079;21;20273;-25
2024/04/15 03:17:04;;;;;;;0.00;0.00;;;20.30;84.50;;;21.01;62.48;99674.22;6609533;21;20273;-28
2024/04/15 03:19:30;;;;;;;0.00;0.00;;;20.40;84.60;;;20.98;62.95;99670.19;6594018;21;20261;-24
2024/04/15 03:21:56;;;;;;;0.10;0.10;;;20.30;84.70;;;20.98;62.64;99655.03;6593952;21;20336;-24
2024/04/15 03:24:21;;;;;;;0.10;0.10;;;20.30;84.80;;;20.96;62.75;99640.38;6624592;21;20227;-26
2024/04/15 03:26:47;;;;;;;0.00;0.00;;;20.30;84.80;;;20.93;63.05;99639.00;6594467;21;20267;-26
2024/04/15 03:29:13;;;;;;;0.00;0.00;;;20.30;85.00;;;20.92;63.06;99632.06;6625963;21;20281;-27
2024/04/15 03:31:39;;;;;;;0.07;0.07;;;20.30;85.10;;;20.92;63.30;99645.34;6594609;21;20268;-24
2024/04/15 03:34:05;;;;;;;0.00;0.00;;;20.30;85.20;;;20.90;62.98;99655.41;6593230;21;20843;-24
2024/04/15 03:36:31;;;;;;;0.10;0.10;;;20.20;85.00;;;20.88;63.17;99676.13;6624509;21;20536;-26
2024/04/15 03:38:57;;;;;;;0.10;0.10;;;20.20;85.00;;;20.86;62.89;99669.41;6593940;21;20277;-22
2024/04/15 03:41:22;;;;;;;0.07;0.07;;;20.20;85.10;;;20.83;63.32;99667.25;6609791;21;20995;-27
2024/04/15 03:43:48;;;;;;;0.10;0.10;;;20.20;85.00;;;20.81;63.51;99664.03;6570587;21;20367;-23
2024/04/15 03:46:14;;;;;;;0.00;0.00;;;20.20;85.20;;;20.79;62.67;99666.91;6594885;21;20336;-26
2024/04/15 03:48:40;;;;;;;0.10;0.10;;;20.20;85.20;;;20.77;62.96;99662.88;6625493;21;20237;-26
2024/04/15 03:51:06;;;;;;;0.00;0.00;;;20.10;85.10;;;20.75;63.36;99660.47;6594113;21;20275;-27
2024/04/15 03:53:32;;;;;;;0.00;0.00;;;20.10;85.10;;;20.71;63.07;99640.69;6611071;21;20305;-24
2024/04/15 03:55:57;;;;;;;0.10;0.10;;;20.10;85.30;;;20.69;63.09;99653.44;6605963;21;20261;-26
2024/04/15 03:58:23;;;;;;;0.10;0.10;;;20.00;85.20;;;20.67;62.86;99674.13;6595625;21;20270;-25
2024/04/15 04:00:49;;;;;;;0.10;0.10;;;20.00;85.30;;;20.65;63.04;99673.53;6593587;21;20246;-24
2024/04/15 04:03:15;;;;;;;0.10;0.10;;;20.00;85.30;;;20.63;63.37;99675.63;6595551;21;20700;-26
2024/04/15 04:05:42;;;;;;;0.20;0.20;;;20.00;85.40;;;20.61;62.90;99677.72;6611190;21;20267;-23
2024/04/15 04:08:07;;;;;;;0.10;0.10;;;20.00;85.50;;;20.58;63.03;99675.53;6609886;21;20702;-24
2024/04/15 04:10:33;;;;;;;0.10;0.10;;;19.90;85.40;;;20.55;63.25;99658.22;6593070;21;20317;-24
2024/04/15 04:12:59;;;;;;;0.10;0.10;;;19.90;85.60;;;20.54;63.33;99650.47;6625977;21;20226;-24
2024/04/15 04:15:25;;;;;;;0.00;0.00;;;19.90;85.70;;;20.51;63.37;99651.75;6594619;21;20269;-25
2024/04/15 04:17:51;;;;;;;0.17;0.17;;;19.90;85.70;;;20.49;63.66;99659.16;6605405;21;20299;-24
2024/04/15 04:20:18;;;;;;;0.10;0.10;;;19.90;85.80;;;20.47;63.46;99649.81;6623840;21;20245;-25
2024/04/15 04:22:44;;;;;;;0.00;0.00;;;19.80;85.70;;;20.45;63.57;99658.78;6603287;21;20257;-24
2024/04/15 04:25:12;;;;;;;0.10;0.10;;;19.80;85.80;;;20.43;63.62;99654.75;6635309;21;20274;-24
2024/04/15 04:27:42;;;;;;;0.10;0.10;;;19.80;85.90;;;20.41;63.75;99664.81;6564455;21;20675;-26
2024/04/15 04:30:10;;;;;;;0.10;0.10;;;19.70;85.90;;;20.38;63.38;99675.88;6594325;21;20296;-29
2024/04/15 04:32:36;;;;;;;0.10;0.10;;;19.70;86.00;;;20.37;63.83;99660.97;6627708;21;20226;-25
2024/04/15 04:35:03;;;;;;;0.00;0.00;;;19.70;86.10;;;20.35;64.03;99652.44;6604543;21;20669;-26
2024/04/15 04:37:29;;;;;;;0.10;0.10;;;19.70;86.30;;;20.34;64.01;99674.75;6604790;21;20214;-27
2024/04/15 04:39:57;;;;;;;0.10;0.10;;;19.70;86.40;;;20.32;64.03;99666.19;6555871;21;20701;-23
2024/04/15 04:42:31;;;;;;;0.10;0.10;;;19.60;86.40;;;20.31;64.12;99672.53;6594057;21;20815;-26
2024/04/15 04:44:58;;;;;;;0.00;0.00;;;19.60;86.70;;;20.27;64.30;99674.06;6628503;21;20264;-28
2024/04/15 04:47:31;;;;;;;0.10;0.10;;;19.60;87.00;;;20.26;64.42;99667.16;6595470;21;20262;-24
2024/04/15 04:50:02;;;;;;;0.00;0.00;;;19.60;87.30;;;20.25;64.15;99676.13;6595719;21;20255;-25
2024/04/15 04:52:29;;;;;;;0.10;0.10;;;19.60;87.30;;;20.24;64.63;99674.50;6626436;21;20311;-23
2024/04/15 04:54:57;;;;;;;0.10;0.10;;;19.50;87.20;;;20.22;64.75;99687.22;6591942;21;20301;-27
2024/04/15 04:57:23;;;;;;;0.10;0.10;;;19.50;87.30;;;20.18;64.38;99687.69;6611696;21;20222;-29
2024/04/15 05:00:07;;;;;;;0.10;0.10;;;19.50;87.40;;;20.17;64.66;99679.94;6571603;21;20309;-28
2024/04/15 05:02:33;;;;;;;0.10;0.10;;;19.50;87.70;;;20.14;64.83;99670.63;6579936;21;20312;-24
2024/04/15 05:04:59;;;;;;;0.10;0.10;;;19.50;87.90;;;20.13;65.33;99671.66;6628363;21;20230;-24
2024/04/15 05:07:25;;;;;;;0.10;0.10;;;19.50;88.00;;;20.10;65.39;99668.66;6557917;21;20253;-25
2024/04/15 05:09:52;;;;;;;0.10;0.10;;;19.40;88.30;;;20.08;65.52;99657.47;6620375;21;20262;-26
2024/04/15 05:12:18;;;;;;;0.10;0.10;;;19.40;88.40;;;20.07;65.57;99663.81;6607570;21;20242;-25
2024/04/15 05:14:48;;;;;;;0.10;0.10;;;19.40;88.50;;;20.05;65.50;99672.00;6585799;21;20296;-24
2024/04/15 05:17:14;;;;;;;0.20;0.20;;;19.40;88.80;;;20.04;66.23;99673.03;6619661;21;20219;-25
2024/04/15 05:19:39;;;;;;;0.20;0.20;;;19.40;89.30;;;20.03;66.39;99684.69;6585897;21;20315;-27
2024/04/15 05:22:05;;;;;;;0.10;0.10;;;19.40;89.80;;;20.01;66.90;99681.47;6588182;21;20254;-31
2024/04/15 05:24:31;;;;;;;0.10;0.10;;;19.30;90.00;;;20.01;66.87;99678.81;6619358;21;20234;-24
2024/04/15 05:26:57;;;;;;;0.10;0.10;;;19.30;90.00;;;20.00;66.78;99687.81;6589135;21;20266;-29
2024/04/15 05:29:22;;;;;;;0.10;0.10;;;19.30;90.00;;;19.98;66.72;99700.50;6603540;21;20922;-26
2024/04/15 05:31:48;;;;;;;0.10;0.10;;;19.30;90.00;;;19.97;66.48;99706.84;6603677;21;20262;-26
2024/04/15 05:34:14;;;;;;;0.10;0.10;;;19.30;90.00;;;19.98;66.52;99710.31;6589414;21;20270;-25
2024/04/15 05:36:40;;;;;;;0.10;0.10;;;19.30;90.00;;;19.95;66.47;99703.63;6618326;21;20256;-25
2024/04/15 05:39:06;;;;;;;0.10;0.10;;;19.20;90.00;;;19.93;66.29;99711.03;6589741;21;20641;-29
2024/04/15 05:41:32;;;;;;;0.10;0.10;;;19.20;90.10;;;19.92;66.35;99714.72;6606753;21;20257;-24
2024/04/15 05:43:57;;;;;;;0.00;0.00;;;19.20;90.10;;;19.91;66.63;99710.41;6606258;21;20859;-27
2024/04/15 05:46:23;;;;;;;0.10;0.10;;;19.20;90.10;;;19.88;66.73;99711.69;6591650;21;20261;-24
2024/04/15 05:48:49;;;;;;;0.20;0.20;;;19.20;90.20;;;19.88;66.42;99700.28;6622161;21;20552;-26
2024/04/15 05:51:17;;;;;;;0.03;0.03;;;19.20;90.30;;;19.87;66.55;99698.66;6589181;21;20284;-25
2024/04/15 05:53:43;;;;;;;0.00;0.00;;;19.20;90.30;;;19.85;66.66;99698.09;6607856;21;20261;-23
2024/04/15 05:56:09;;;;;;;0.10;0.10;;;19.10;90.40;;;19.84;66.81;99709.72;6605778;21;20266;-24
2024/04/15 05:58:35;;;;;;;0.10;0.10;;;19.10;90.50;;;19.84;66.98;99712.38;6591072;21;20261;-23
2024/04/15 06:01:01;;;;;;;0.10;0.10;;;19.10;90.50;;;19.82;67.04;99712.63;6622572;21;20260;-24
2024/04/15 06:03:27;;;;;;;0.10;0.10;;;19.10;90.60;;;19.81;66.93;99703.03;6593230;21;20261;-26
2024/04/15 06:05:53;;;;;;;0.10;0.10;;;19.10;90.70;;;19.79;67.22;99715.75;6593922;21;20253;-24
2024/04/15 06:08:19;;;;;;;0.10;0.10;;;19.10;90.80;;;19.77;67.22;99703.72;6581546;21;20256;-26
2024/04/15 06:10:47;;;;;;;0.03;0.03;;;19.00;90.90;;;19.76;67.62;99705.56;6592203;21;20266;-26
2024/04/15 06:13:13;;;;;;;0.07;0.07;;;19.10;91.00;;;19.76;67.66;99699.44;6625380;21;20518;-28
2024/04/15 06:15:39;;;;;;;0.10;0.10;;;19.00;91.00;;;19.75;67.78;99700.50;6592129;21;20340;-24
2024/04/15 06:18:05;;;;;;;0.10;0.10;;;19.00;91.10;;;19.73;67.59;99692.78;6594256;21;20273;-30
2024/04/15 06:20:31;;;;;;;0.10;0.10;;;19.00;91.10;;;19.74;67.48;99696.22;6622784;21;20225;-25
2024/04/15 06:22:57;;;;;;;0.10;0.10;;;19.00;91.10;;;19.72;67.71;99695.66;6593001;21;20769;-24
2024/04/15 06:25:23;;;;;;;0.10;0.10;;;19.00;91.20;;;19.71;67.40;99696.66;6609084;21;20276;-27
2024/04/15 06:27:49;;;;;;;0.10;0.10;;;19.00;91.20;;;19.70;67.49;99698.53;6608928;21;20256;-27
2024/04/15 06:30:14;;;;;;;0.00;0.00;;;19.00;91.20;;;19.70;67.42;99700.38;6593631;21;20300;-29
2024/04/15 06:32:40;;;;;;;0.10;0.10;;;19.00;91.30;;;19.69;67.46;99701.41;6624929;21;20222;-24
2024/04/15 06:35:06;;;;;;;0.10;0.10;;;18.90;91.40;;;19.68;67.59;99705.09;6592648;21;20355;-23
2024/04/15 06:37:32;;;;;;;0.10;0.10;;;18.90;91.40;;;19.68;68.12;99710.41;6608977;21;20362;-23
2024/04/15 06:39:58;;;;;;;0.13;0.13;;;18.90;91.50;;;19.67;68.11;99700.84;6606826;21;20278;-26
2024/04/15 06:42:24;;;;;;;0.10;0.10;;;18.90;91.60;;;19.67;67.85;99711.44;6593579;21;20749;-26
2024/04/15 06:44:49;;;;;;;0.10;0.10;;;18.90;91.60;;;19.67;68.18;99714.09;6624708;21;20221;-26
2024/04/15 06:47:15;;;;;;;0.10;0.10;;;18.90;91.70;;;19.67;67.99;99719.41;6593555;21;20261;-30
2024/04/15 06:49:41;;;;;;;0.20;0.20;;;18.90;91.70;;;19.66;68.14;99712.50;6609271;21;20309;-27
2024/04/15 06:52:07;;;;;;;0.10;0.10;;;18.90;91.80;;;19.65;68.17;99717.00;6609055;21;20269;-24
2024/04/15 06:54:33;;;;;;;0.10;0.10;;;18.90;91.80;;;19.64;68.42;99720.66;6593656;21;20269;-23
2024/04/15 06:56:59;;;;;;;0.10;0.10;;;18.90;91.90;;;19.63;68.34;99709.25;6624532;21;20225;-24
2024/04/15 06:59:24;;;;;;;0.10;0.10;;;18.90;91.90;;;19.63;68.29;99698.63;6592202;21;20316;-23
2024/04/15 07:01:50;;;;;;;0.10;0.10;;;18.90;92.00;;;19.62;68.59;99689.06;6608330;21;20261;-25
2024/04/15 07:04:16;;;;;;;0.10;0.10;;;18.90;92.20;;;19.61;68.98;99690.09;6615057;21;20540;-31
2024/04/15 07:06:42;;;;;;;0.20;0.20;;;18.90;92.40;;;19.61;69.23;99687.44;6592061;21;20434;-32
2024/04/15 07:09:08;;;;;;;0.10;0.10;;;18.90;92.40;;;19.61;69.61;99684.78;6625091;21;20234;-27
2024/04/15 07:11:34;;;;;;;0.10;0.10;;;18.90;92.70;;;19.63;69.71;99687.22;6600509;21;20340;-31
2024/04/15 07:14:00;;;;;;;0.10;0.10;;;18.90;92.70;;;19.62;69.69;99674.97;6600215;21;20273;-32
2024/04/15 07:16:25;;;;;;;0.10;0.10;;;18.90;92.70;;;19.63;69.65;99656.19;6622857;21;20225;-31
2024/04/15 07:18:51;;;;;;;0.00;0.00;;;18.90;93.20;;;19.66;71.12;99643.50;6593772;21;20374;-24
2024/04/15 07:21:17;;;;;;;0.10;0.10;;;19.00;93.50;;;19.68;71.38;99636.13;6608007;21;20628;-28
2024/04/15 07:23:46;;;;;;;0.10;0.10;;;19.00;93.70;;;19.69;71.26;99635.06;6567302;21;20273;-26
2024/04/15 07:26:12;;;;;;;0.10;0.10;;;19.00;93.50;;;19.67;70.66;99635.31;6593055;21;21753;-27
2024/04/15 07:28:38;;;;;;;0.10;0.10;;;19.00;93.30;;;19.67;70.69;99640.63;6623716;21;20229;-24
2024/04/15 07:31:04;;;;;;;0.07;0.07;;;19.00;93.20;;;19.66;70.60;99643.50;6591238;21;20266;-24
2024/04/15 07:33:30;;;;;;;0.10;0.10;;;19.00;93.20;;;19.68;70.25;99636.13;6608735;21;21013;-28
2024/04/15 07:35:59;;;;;;;0.10;0.10;;;19.00;93.10;;;19.65;70.05;99640.06;6606870;21;20265;-28
2024/04/15 07:38:26;;;;;;;0.10;0.10;;;19.00;93.10;;;19.66;70.03;99643.50;6593231;21;20277;-31
2024/04/15 07:40:53;;;;;;;0.10;0.10;;;19.00;93.20;;;19.65;69.68;99650.66;6623132;21;20233;-26
2024/04/15 07:43:19;;;;;;;0.20;0.20;;;19.00;93.10;;;19.66;69.65;99648.81;6592824;21;20315;-29
2024/04/15 07:45:45;;;;;;;0.10;0.10;;;18.90;93.10;;;19.66;69.61;99654.13;6590945;21;20358;-24
2024/04/15 07:48:13;;;;;;;0.20;0.20;;;18.90;93.10;;;19.66;69.40;99656.78;6623123;21;20814;-27
2024/04/15 07:50:39;;;;;;;0.10;0.10;;;18.90;93.00;;;19.65;69.56;99655.97;6592310;21;20270;-27
2024/04/15 07:53:05;;;;;;;0.10;0.10;;;18.90;93.00;;;19.63;69.31;99653.53;6624519;21;20676;-28
2024/04/15 07:55:30;;;;;;;0.10;0.10;;;18.90;93.00;;;19.64;69.46;99656.97;6548486;21;20268;-25
2024/04/15 07:57:57;;;;;;;0.10;0.10;;;18.90;93.20;;;19.63;69.33;99650.88;6592753;21;20257;-25
2024/04/15 08:00:23;;;;;;;0.10;0.10;;;18.90;93.20;;;19.62;69.62;99638.66;6580878;21;20238;-37
2024/04/15 08:02:49;;;;;;;0.10;0.10;;;18.90;93.20;;;19.64;70.15;99627.78;6592305;21;20261;-25
2024/04/15 08:05:15;;;;;;;0.10;0.10;;;18.90;93.60;;;19.66;69.92;99632.91;6624876;21;20222;-27
2024/04/15 08:07:41;;;;;;;0.10;0.10;;;18.90;93.40;;;19.65;69.43;99636.59;6591727;21;20264;-30
2024/04/15 08:10:07;;;;;;;0.10;0.10;;;19.00;93.30;;;19.63;69.63;99636.81;6592330;21;20347;-24
2024/04/15 08:12:33;;;;;;;0.00;0.00;;;18.90;93.20;;;19.63;69.24;99634.94;6623419;21;20284;-27
2024/04/15 08:14:58;;;;;;;0.10;0.10;;;18.90;93.20;;;19.62;69.10;99628.03;6592782;21;20265;-25
2024/04/15 08:17:24;;;;;;;0.03;0.03;;;18.90;93.20;;;19.62;69.37;99622.72;6607575;21;20277;-28
2024/04/15 08:19:52;;;;;;;0.10;0.10;;;18.90;93.20;;;19.61;69.16;99623.78;6607339;21;20355;-24
2024/04/15 08:22:18;;;;;;;0.10;0.10;;;18.90;93.30;;;19.62;69.22;99614.78;6593102;21;20299;-23
2024/04/15 08:24:48;;;;;;;0.10;0.10;;;18.90;93.20;;;19.62;69.10;99611.31;6622825;21;20560;-24
2024/04/15 08:27:14;;;;;;;0.10;0.10;;;18.90;93.20;;;19.60;70.12;99606.25;6591393;21;20272;-26
2024/04/15 08:29:40;;;;;;;0.10;0.10;;;18.90;93.40;;;19.63;69.90;99604.97;6608438;21;20280;-23
2024/04/15 08:32:06;;;;;;;0.00;0.00;;;18.90;93.70;;;19.65;70.06;99612.72;6607384;21;21076;-26
2024/04/15 08:34:32;;;;;;;0.10;0.10;;;18.90;93.90;;;19.65;70.15;99620.69;6570613;21;20262;-26
2024/04/15 08:36:58;;;;;;;0.10;0.10;;;18.90;93.70;;;19.65;69.99;99612.72;6623689;21;20234;-27
2024/04/15 08:39:23;;;;;;;0.10;0.10;;;18.90;93.80;;;19.67;70.29;99607.97;6591134;21;20269;-29
2024/04/15 08:41:58;;;;;;;0.10;0.10;;;19.00;93.80;;;19.68;70.62;99605.09;6607289;21;20261;-25
2024/04/15 08:44:25;;;;;;;0.00;0.00;;;19.00;94.20;;;19.71;71.25;99604.63;6581157;21;20244;-27
2024/04/15 08:46:52;;;;;;;0.10;0.10;;;19.00;94.40;;;19.72;70.91;99610.75;6591635;21;20596;-25
2024/04/15 08:49:18;;;;;;;0.10;0.10;;;19.00;94.30;;;19.74;70.66;99611.31;6623605;21;20245;-27
2024/04/15 08:51:45;;;;;;;0.00;0.00;;;19.10;94.30;;;19.75;70.53;99615.59;6548113;21;20278;-24
2024/04/15 08:54:11;;;;;;;0.10;0.10;;;19.00;94.30;;;19.75;70.31;99616.38;6593869;21;20367;-25
2024/04/15 08:56:44;;;;;;;0.10;0.10;;;19.10;94.20;;;19.76;70.36;99602.06;6622289;21;20990;-26
2024/04/15 08:59:14;;;;;;;0.10;0.10;;;19.00;94.20;;;19.78;70.92;99604.50;6591746;21;20268;-28
2024/04/15 09:01:40;;;;;;;0.10;0.10;;;19.10;94.60;;;19.80;71.31;99613.06;6607949;21;20655;-30
2024/04/15 09:04:08;;;;;;;0.00;0.00;;;19.10;94.60;;;19.82;71.47;99611.78;6578907;21;20390;-28
2024/04/15 09:06:34;;;;;;;0.10;0.10;;;19.10;94.80;;;19.85;71.40;99602.56;6538624;21;20308;-24
2024/04/15 09:09:00;;;;;;;0.00;0.00;;;19.10;94.90;;;19.89;71.46;99603.69;6553294;21;20234;-28
2024/04/15 09:11:26;;;;;;;0.00;0.00;;;19.10;95.00;;;19.92;71.61;99589.97;6540756;21;20270;-29
2024/04/15 09:13:52;;;;;;;0.10;0.10;;;19.10;95.00;;;19.96;71.95;99588.44;6572530;21;20271;-23
2024/04/15 09:16:18;;;;;;;0.10;0.10;;;19.20;95.40;;;20.00;72.05;99580.84;6578840;21;20275;-23
2024/04/15 09:18:45;;;;;;;0.10;0.10;;;19.20;95.20;;;20.03;71.63;99575.84;6555949;21;20266;-23
2024/04/15 09:21:11;;;;;;;0.10;0.10;;;19.30;95.30;;;20.08;71.95;99570.66;6599700;21;20684;-25
2024/04/15 09:23:36;;;;;;;0.10;0.10;;;19.30;95.50;;;20.15;72.06;99567.88;6494168;21;20309;-26
2024/04/15 09:26:02;;;;;;;0.10;0.10;;;19.30;95.60;;;20.19;71.80;99569.03;6567671;21;21021;-31
2024/04/15 09:28:28;;;;;;;0.00;0.00;;;19.40;95.70;;;20.23;71.43;99567.50;6583596;21;20274;-30
2024/04/15 09:30:55;;;;;;;0.10;0.10;;;19.50;95.50;;;20.29;71.49;99577.16;6552603;21;20270;-24
2024/04/15 09:33:21;;;;;;;0.00;0.00;;;19.50;95.60;;;20.35;72.15;99568.25;6584062;21;20218;-25
2024/04/15 09:35:47;;;;;;;0.10;0.10;;;19.60;95.80;;;20.43;71.98;99557.25;6552199;21;20298;-26
2024/04/15 09:38:15;;;;;;;0.00;0.00;;;19.60;95.90;;;20.51;73.04;99555.28;6569064;21;20330;-27
2024/04/15 09:40:42;;;;;;;0.07;0.07;;;19.70;96.00;;;20.59;72.09;99546.94;6546290;21;20782;-30
2024/04/15 09:43:11;;;;;;;0.10;0.10;;;19.80;96.00;;;20.65;71.50;99552.09;6550593;21;20266;-28
2024/04/15 09:45:38;;;;;;;0.00;0.00;;;19.90;95.80;;;20.72;72.22;99550.09;6584840;21;20259;-30
2024/04/15 09:48:10;;;;;;;0.07;0.07;;;19.90;96.20;;;20.81;71.70;99541.75;6560197;21;20356;-30
2024/04/15 09:50:38;;;;;;;0.10;0.10;;;20.00;96.10;;;20.90;72.48;99542.97;6560286;21;20266;-33
2024/04/15 09:53:06;;;;;;;0.00;0.00;;;20.10;96.20;;;20.97;71.21;99533.78;6600549;21;20274;-25
2024/04/15 09:55:40;;;;;;;0.00;0.00;;;20.20;96.30;;;21.04;71.00;99522.19;6539875;21;20334;-27
2024/04/15 09:58:08;;;;;;;0.00;0.00;;;20.20;95.90;;;21.11;70.59;99518.31;6569229;21;20307;-26
2024/04/15 10:00:39;;;;;;;0.03;0.03;;;20.30;95.90;;;21.18;70.79;99512.81;6543167;21;20488;-25
2024/04/15 10:03:08;;;;;;;0.10;0.10;;;20.40;95.80;;;21.23;70.50;99513.69;6592089;21;20267;-32
2024/04/15 10:05:40;;;;;;;0.00;0.00;;;20.40;95.60;;;21.29;69.63;99519.94;6586008;21;20773;-31
2024/04/15 10:08:07;;;;;;;0.00;0.00;;;20.50;95.40;;;21.33;69.22;99505.09;6609321;21;20639;-24
2024/04/15 10:10:34;;;;;;;0.00;0.00;;;20.50;95.30;;;21.38;69.40;99499.03;6591836;21;20301;-29
2024/04/15 10:13:03;;;;;;;0.10;0.10;;;20.60;95.10;;;21.44;69.34;99506.84;6549170;21;20245;-28
2024/04/15 10:15:30;;;;;;;0.00;0.00;;;20.60;95.00;;;21.47;68.02;99501.06;6592880;21;20333;-25
2024/04/15 10:17:57;;;;;;;0.00;0.00;;;20.70;94.80;;;21.51;68.04;99501.34;6577683;21;20306;-28